sensor_id;sensor_type;location;lat;lon;timestamp;P1;durP1;ratioP1;P2;durP2;ratioP2
44366;SDS011;30086;57.660;12.000;2023-08-20T00:01:05;8.00;;;6.80;;
44366;SDS011;30086;57.660;12.000;2023-08-20T00:04:14;8.73;;;6.55;;
44366;SDS011;30086;57.660;12.000;2023-08-20T00:09:53;11.68;;;8.07;;
44366;SDS011;30086;57.660;12.000;2023-08-20T00:12:42;11.98;;;7.25;;
44366;SDS011;30086;57.660;12.000;2023-08-20T00:15:43;8.15;;;7.07;;
44366;SDS011;30086;57.660;12.000;2023-08-20T00:22:02;11.15;;;8.40;;
44366;SDS011;30086;57.660;12.000;2023-08-20T00:25:36;12.38;;;8.27;;
44366;SDS011;30086;57.660;12.000;2023-08-20T00:28:29;14.65;;;8.63;;
44366;SDS011;30086;57.660;12.000;2023-08-20T00:31:40;13.25;;;9.25;;
44366;SDS011;30086;57.660;12.000;2023-08-20T00:34:34;12.73;;;8.85;;
44366;SDS011;30086;57.660;12.000;2023-08-20T00:37:18;16.63;;;9.27;;
44366;SDS011;30086;57.660;12.000;2023-08-20T00:40:40;13.50;;;9.40;;
44366;SDS011;30086;57.660;12.000;2023-08-20T00:43:23;13.82;;;9.82;;
44366;SDS011;30086;57.660;12.000;2023-08-20T00:51:52;14.32;;;9.27;;
44366;SDS011;30086;57.660;12.000;2023-08-20T00:54:53;11.90;;;8.60;;
44366;SDS011;30086;57.660;12.000;2023-08-20T00:58:12;12.30;;;9.70;;
44366;SDS011;30086;57.660;12.000;2023-08-20T01:00:40;13.30;;;9.65;;
44366;SDS011;30086;57.660;12.000;2023-08-20T01:03:54;14.85;;;10.15;;
44366;SDS011;30086;57.660;12.000;2023-08-20T01:10:06;13.48;;;10.07;;
44366;SDS011;30086;57.660;12.000;2023-08-20T01:12:47;17.33;;;11.32;;
44366;SDS011;30086;57.660;12.000;2023-08-20T01:15:53;22.63;;;12.43;;
44366;SDS011;30086;57.660;12.000;2023-08-20T01:19:05;15.38;;;11.82;;
44366;SDS011;30086;57.660;12.000;2023-08-20T01:22:33;13.70;;;11.43;;
44366;SDS011;30086;57.660;12.000;2023-08-20T01:31:15;15.88;;;11.82;;
44366;SDS011;30086;57.660;12.000;2023-08-20T01:34:24;20.40;;;13.25;;
44366;SDS011;30086;57.660;12.000;2023-08-20T01:37:33;17.35;;;12.18;;
44366;SDS011;30086;57.660;12.000;2023-08-20T01:40:46;18.70;;;13.50;;
44366;SDS011;30086;57.660;12.000;2023-08-20T01:43:57;19.42;;;12.88;;
44366;SDS011;30086;57.660;12.000;2023-08-20T01:47:16;17.17;;;11.48;;
44366;SDS011;30086;57.660;12.000;2023-08-20T01:50:16;14.52;;;11.60;;
44366;SDS011;30086;57.660;12.000;2023-08-20T01:53:29;15.77;;;11.13;;
44366;SDS011;30086;57.660;12.000;2023-08-20T01:56:17;14.27;;;11.10;;
44366;SDS011;30086;57.660;12.000;2023-08-20T01:59:32;19.05;;;11.10;;
44366;SDS011;30086;57.660;12.000;2023-08-20T02:02:44;16.83;;;10.43;;
44366;SDS011;30086;57.660;12.000;2023-08-20T02:05:38;15.25;;;11.00;;
44366;SDS011;30086;57.660;12.000;2023-08-20T02:11:22;13.80;;;9.97;;
44366;SDS011;30086;57.660;12.000;2023-08-20T02:14:20;13.18;;;10.38;;
44366;SDS011;30086;57.660;12.000;2023-08-20T02:17:32;13.18;;;10.57;;
44366;SDS011;30086;57.660;12.000;2023-08-20T02:20:43;15.25;;;9.75;;
44366;SDS011;30086;57.660;12.000;2023-08-20T02:23:50;12.88;;;10.18;;
44366;SDS011;30086;57.660;12.000;2023-08-20T02:26:43;13.77;;;10.02;;
44366;SDS011;30086;57.660;12.000;2023-08-20T02:29:47;12.20;;;9.48;;
44366;SDS011;30086;57.660;12.000;2023-08-20T02:32:39;12.80;;;9.57;;
44366;SDS011;30086;57.660;12.000;2023-08-20T02:35:12;12.40;;;9.88;;
44366;SDS011;30086;57.660;12.000;2023-08-20T02:38:14;11.35;;;9.10;;
44366;SDS011;30086;57.660;12.000;2023-08-20T02:41:21;14.75;;;8.88;;
44366;SDS011;30086;57.660;12.000;2023-08-20T02:44:07;10.57;;;8.07;;
44366;SDS011;30086;57.660;12.000;2023-08-20T02:47:17;10.35;;;8.65;;
44366;SDS011;30086;57.660;12.000;2023-08-20T02:50:06;10.50;;;7.90;;
44366;SDS011;30086;57.660;12.000;2023-08-20T02:53:07;11.38;;;8.10;;
44366;SDS011;30086;57.660;12.000;2023-08-20T02:56:05;10.93;;;7.93;;
44366;SDS011;30086;57.660;12.000;2023-08-20T02:59:01;10.85;;;8.20;;
44366;SDS011;30086;57.660;12.000;2023-08-20T03:01:38;10.10;;;7.82;;
44366;SDS011;30086;57.660;12.000;2023-08-20T03:04:24;10.88;;;7.82;;
44366;SDS011;30086;57.660;12.000;2023-08-20T03:07:42;10.52;;;7.32;;
44366;SDS011;30086;57.660;12.000;2023-08-20T03:10:29;7.45;;;6.65;;
44366;SDS011;30086;57.660;12.000;2023-08-20T03:13:52;9.13;;;7.40;;
44366;SDS011;30086;57.660;12.000;2023-08-20T03:16:41;7.93;;;6.90;;
44366;SDS011;30086;57.660;12.000;2023-08-20T03:20:00;9.70;;;6.95;;
44366;SDS011;30086;57.660;12.000;2023-08-20T03:23:10;9.50;;;6.75;;
44366;SDS011;30086;57.660;12.000;2023-08-20T03:26:28;8.45;;;6.93;;
44366;SDS011;30086;57.660;12.000;2023-08-20T03:32:10;9.40;;;7.22;;
44366;SDS011;30086;57.660;12.000;2023-08-20T03:38:18;8.77;;;6.22;;
44366;SDS011;30086;57.660;12.000;2023-08-20T03:41:26;6.97;;;6.28;;
44366;SDS011;30086;57.660;12.000;2023-08-20T03:44:35;7.65;;;6.90;;
44366;SDS011;30086;57.660;12.000;2023-08-20T03:47:42;7.28;;;6.32;;
44366;SDS011;30086;57.660;12.000;2023-08-20T03:53:43;7.20;;;6.22;;
44366;SDS011;30086;57.660;12.000;2023-08-20T03:56:30;7.45;;;6.30;;
44366;SDS011;30086;57.660;12.000;2023-08-20T03:59:34;8.63;;;6.32;;
44366;SDS011;30086;57.660;12.000;2023-08-20T04:02:49;7.38;;;5.93;;
44366;SDS011;30086;57.660;12.000;2023-08-20T04:08:45;7.07;;;5.40;;
44366;SDS011;30086;57.660;12.000;2023-08-20T04:11:53;7.32;;;6.20;;
44366;SDS011;30086;57.660;12.000;2023-08-20T04:18:08;7.40;;;6.13;;
44366;SDS011;30086;57.660;12.000;2023-08-20T04:21:29;8.17;;;6.43;;
44366;SDS011;30086;57.660;12.000;2023-08-20T04:28:08;7.90;;;6.15;;
44366;SDS011;30086;57.660;12.000;2023-08-20T04:31:18;8.48;;;6.00;;
44366;SDS011;30086;57.660;12.000;2023-08-20T04:34:12;8.02;;;6.40;;
44366;SDS011;30086;57.660;12.000;2023-08-20T04:36:59;10.95;;;7.10;;
44366;SDS011;30086;57.660;12.000;2023-08-20T04:40:17;7.90;;;5.80;;
44366;SDS011;30086;57.660;12.000;2023-08-20T04:43:07;11.02;;;5.90;;
44366;SDS011;30086;57.660;12.000;2023-08-20T04:45:33;7.57;;;5.82;;
44366;SDS011;30086;57.660;12.000;2023-08-20T04:48:18;7.75;;;6.47;;
44366;SDS011;30086;57.660;12.000;2023-08-20T04:51:14;6.43;;;5.72;;
44366;SDS011;30086;57.660;12.000;2023-08-20T04:53:56;8.20;;;6.00;;
44366;SDS011;30086;57.660;12.000;2023-08-20T04:56:44;7.95;;;6.30;;
44366;SDS011;30086;57.660;12.000;2023-08-20T04:59:21;6.70;;;6.00;;
44366;SDS011;30086;57.660;12.000;2023-08-20T05:02:23;8.95;;;5.90;;
44366;SDS011;30086;57.660;12.000;2023-08-20T05:05:18;8.48;;;6.88;;
44366;SDS011;30086;57.660;12.000;2023-08-20T05:07:50;7.40;;;6.43;;
44366;SDS011;30086;57.660;12.000;2023-08-20T05:10:51;7.07;;;6.38;;
44366;SDS011;30086;57.660;12.000;2023-08-20T05:13:19;6.20;;;5.50;;
44366;SDS011;30086;57.660;12.000;2023-08-20T05:16:08;7.55;;;6.10;;
44366;SDS011;30086;57.660;12.000;2023-08-20T05:19:00;8.25;;;6.47;;
44366;SDS011;30086;57.660;12.000;2023-08-20T05:22:07;8.98;;;6.95;;
44366;SDS011;30086;57.660;12.000;2023-08-20T05:24:56;7.00;;;5.68;;
44366;SDS011;30086;57.660;12.000;2023-08-20T05:28:09;8.15;;;6.28;;
44366;SDS011;30086;57.660;12.000;2023-08-20T05:34:24;7.63;;;6.15;;
44366;SDS011;30086;57.660;12.000;2023-08-20T05:37:03;8.65;;;6.43;;
44366;SDS011;30086;57.660;12.000;2023-08-20T05:49:18;10.23;;;7.38;;
44366;SDS011;30086;57.660;12.000;2023-08-20T05:52:05;12.05;;;6.28;;
44366;SDS011;30086;57.660;12.000;2023-08-20T05:55:17;11.50;;;7.10;;
44366;SDS011;30086;57.660;12.000;2023-08-20T05:58:08;10.13;;;6.90;;
44366;SDS011;30086;57.660;12.000;2023-08-20T06:00:52;10.73;;;6.60;;
44366;SDS011;30086;57.660;12.000;2023-08-20T06:06:49;15.88;;;8.07;;
44366;SDS011;30086;57.660;12.000;2023-08-20T06:09:55;12.98;;;7.68;;
44366;SDS011;30086;57.660;12.000;2023-08-20T06:13:01;14.45;;;7.88;;
44366;SDS011;30086;57.660;12.000;2023-08-20T06:18:28;14.57;;;7.93;;
44366;SDS011;30086;57.660;12.000;2023-08-20T06:21:34;12.32;;;7.68;;
44366;SDS011;30086;57.660;12.000;2023-08-20T06:24:16;13.40;;;8.27;;
44366;SDS011;30086;57.660;12.000;2023-08-20T06:27:22;12.90;;;7.97;;
44366;SDS011;30086;57.660;12.000;2023-08-20T06:30:52;13.48;;;7.78;;
44366;SDS011;30086;57.660;12.000;2023-08-20T06:33:41;14.27;;;8.10;;
44366;SDS011;30086;57.660;12.000;2023-08-20T06:36:45;15.63;;;8.90;;
44366;SDS011;30086;57.660;12.000;2023-08-20T06:39:34;17.58;;;9.43;;
44366;SDS011;30086;57.660;12.000;2023-08-20T06:42:20;15.93;;;9.00;;
44366;SDS011;30086;57.660;12.000;2023-08-20T06:51:18;12.30;;;8.27;;
44366;SDS011;30086;57.660;12.000;2023-08-20T06:54:05;10.50;;;7.60;;
44366;SDS011;30086;57.660;12.000;2023-08-20T06:57:10;13.63;;;7.80;;
44366;SDS011;30086;57.660;12.000;2023-08-20T06:59:51;10.80;;;7.43;;
44366;SDS011;30086;57.660;12.000;2023-08-20T07:02:37;11.48;;;7.10;;
44366;SDS011;30086;57.660;12.000;2023-08-20T07:05:21;9.57;;;6.93;;
44366;SDS011;30086;57.660;12.000;2023-08-20T07:07:59;10.55;;;7.07;;
44366;SDS011;30086;57.660;12.000;2023-08-20T07:10:51;9.82;;;6.97;;
44366;SDS011;30086;57.660;12.000;2023-08-20T07:13:23;16.02;;;9.02;;
44366;SDS011;30086;57.660;12.000;2023-08-20T07:19:27;16.17;;;9.00;;
44366;SDS011;30086;57.660;12.000;2023-08-20T07:22:29;16.35;;;9.25;;
44366;SDS011;30086;57.660;12.000;2023-08-20T07:24:58;17.50;;;10.00;;
44366;SDS011;30086;57.660;12.000;2023-08-20T07:27:39;17.45;;;9.07;;
44366;SDS011;30086;57.660;12.000;2023-08-20T07:30:28;19.30;;;9.40;;
44366;SDS011;30086;57.660;12.000;2023-08-20T07:33:17;15.18;;;9.38;;
44366;SDS011;30086;57.660;12.000;2023-08-20T07:35:49;14.52;;;8.88;;
44366;SDS011;30086;57.660;12.000;2023-08-20T07:38:24;17.17;;;9.48;;
44366;SDS011;30086;57.660;12.000;2023-08-20T07:40:56;16.88;;;8.90;;
44366;SDS011;30086;57.660;12.000;2023-08-20T07:43:26;12.38;;;8.38;;
44366;SDS011;30086;57.660;12.000;2023-08-20T07:45:55;11.10;;;7.38;;
44366;SDS011;30086;57.660;12.000;2023-08-20T07:48:27;11.25;;;7.88;;
44366;SDS011;30086;57.660;12.000;2023-08-20T07:50:58;9.68;;;7.15;;
44366;SDS011;30086;57.660;12.000;2023-08-20T07:53:50;15.93;;;8.20;;
44366;SDS011;30086;57.660;12.000;2023-08-20T07:58:45;14.35;;;8.45;;
44366;SDS011;30086;57.660;12.000;2023-08-20T08:01:12;15.07;;;9.00;;
44366;SDS011;30086;57.660;12.000;2023-08-20T08:03:59;13.30;;;8.80;;
44366;SDS011;30086;57.660;12.000;2023-08-20T08:09:19;17.60;;;9.88;;
44366;SDS011;30086;57.660;12.000;2023-08-20T08:11:48;19.58;;;11.32;;
44366;SDS011;30086;57.660;12.000;2023-08-20T08:14:35;26.15;;;12.95;;
44366;SDS011;30086;57.660;12.000;2023-08-20T08:17:03;23.17;;;11.02;;
44366;SDS011;30086;57.660;12.000;2023-08-20T08:19:32;41.72;;;16.02;;
44366;SDS011;30086;57.660;12.000;2023-08-20T08:21:58;51.42;;;19.30;;
44366;SDS011;30086;57.660;12.000;2023-08-20T08:24:24;56.25;;;20.25;;
44366;SDS011;30086;57.660;12.000;2023-08-20T08:26:53;68.88;;;23.20;;
44366;SDS011;30086;57.660;12.000;2023-08-20T08:29:23;58.83;;;20.55;;
44366;SDS011;30086;57.660;12.000;2023-08-20T08:31:49;64.43;;;20.48;;
44366;SDS011;30086;57.660;12.000;2023-08-20T08:34:15;49.97;;;18.05;;
44366;SDS011;30086;57.660;12.000;2023-08-20T08:36:48;47.83;;;18.20;;
44366;SDS011;30086;57.660;12.000;2023-08-20T08:39:23;34.08;;;15.23;;
44366;SDS011;30086;57.660;12.000;2023-08-20T08:41:55;21.48;;;10.68;;
44366;SDS011;30086;57.660;12.000;2023-08-20T08:44:40;20.10;;;9.10;;
44366;SDS011;30086;57.660;12.000;2023-08-20T08:47:23;8.38;;;4.40;;
44366;SDS011;30086;57.660;12.000;2023-08-20T08:49:49;25.45;;;7.47;;
44366;SDS011;30086;57.660;12.000;2023-08-20T08:52:21;16.42;;;6.70;;
44366;SDS011;30086;57.660;12.000;2023-08-20T08:54:49;29.42;;;11.45;;
44366;SDS011;30086;57.660;12.000;2023-08-20T08:57:18;28.23;;;10.70;;
44366;SDS011;30086;57.660;12.000;2023-08-20T08:59:45;31.27;;;11.13;;
44366;SDS011;30086;57.660;12.000;2023-08-20T09:02:14;33.88;;;11.85;;
44366;SDS011;30086;57.660;12.000;2023-08-20T09:04:55;27.48;;;12.57;;
44366;SDS011;30086;57.660;12.000;2023-08-20T09:07:21;32.03;;;11.05;;
44366;SDS011;30086;57.660;12.000;2023-08-20T09:09:57;22.60;;;9.77;;
44366;SDS011;30086;57.660;12.000;2023-08-20T09:14:57;26.35;;;10.35;;
44366;SDS011;30086;57.660;12.000;2023-08-20T09:17:37;27.15;;;10.07;;
44366;SDS011;30086;57.660;12.000;2023-08-20T09:20:47;23.40;;;10.52;;
44366;SDS011;30086;57.660;12.000;2023-08-20T09:23:15;21.27;;;9.95;;
44366;SDS011;30086;57.660;12.000;2023-08-20T09:26:02;26.77;;;9.80;;
44366;SDS011;30086;57.660;12.000;2023-08-20T09:28:57;26.90;;;9.20;;
44366;SDS011;30086;57.660;12.000;2023-08-20T09:32:09;25.38;;;8.50;;
44366;SDS011;30086;57.660;12.000;2023-08-20T09:35:30;22.75;;;9.23;;
44366;SDS011;30086;57.660;12.000;2023-08-20T09:41:12;18.88;;;8.20;;
44366;SDS011;30086;57.660;12.000;2023-08-20T09:44:06;18.08;;;5.47;;
44366;SDS011;30086;57.660;12.000;2023-08-20T09:47:11;21.80;;;7.43;;
44366;SDS011;30086;57.660;12.000;2023-08-20T09:50:36;18.70;;;7.55;;
44366;SDS011;30086;57.660;12.000;2023-08-20T09:53:10;17.33;;;6.70;;
44366;SDS011;30086;57.660;12.000;2023-08-20T09:56:20;16.30;;;6.28;;
44366;SDS011;30086;57.660;12.000;2023-08-20T09:59:05;24.60;;;8.15;;
44366;SDS011;30086;57.660;12.000;2023-08-20T10:02:11;16.98;;;7.55;;
44366;SDS011;30086;57.660;12.000;2023-08-20T10:04:45;18.95;;;8.52;;
44366;SDS011;30086;57.660;12.000;2023-08-20T10:07:54;17.65;;;7.50;;
44366;SDS011;30086;57.660;12.000;2023-08-20T10:10:44;19.20;;;7.00;;
44366;SDS011;30086;57.660;12.000;2023-08-20T10:13:30;20.13;;;6.85;;
44366;SDS011;30086;57.660;12.000;2023-08-20T10:16:23;13.82;;;6.32;;
44366;SDS011;30086;57.660;12.000;2023-08-20T10:19:32;24.55;;;8.55;;
44366;SDS011;30086;57.660;12.000;2023-08-20T10:22:20;18.90;;;8.07;;
44366;SDS011;30086;57.660;12.000;2023-08-20T10:28:21;24.95;;;7.40;;
44366;SDS011;30086;57.660;12.000;2023-08-20T10:31:27;24.73;;;10.25;;
44366;SDS011;30086;57.660;12.000;2023-08-20T10:34:33;24.90;;;9.18;;
44366;SDS011;30086;57.660;12.000;2023-08-20T10:37:37;25.88;;;8.77;;
44366;SDS011;30086;57.660;12.000;2023-08-20T10:40:58;24.88;;;8.70;;
44366;SDS011;30086;57.660;12.000;2023-08-20T10:43:58;28.60;;;8.70;;
44366;SDS011;30086;57.660;12.000;2023-08-20T10:47:10;19.13;;;8.88;;
44366;SDS011;30086;57.660;12.000;2023-08-20T10:50:15;28.52;;;9.23;;
44366;SDS011;30086;57.660;12.000;2023-08-20T10:53:22;22.65;;;8.23;;
44366;SDS011;30086;57.660;12.000;2023-08-20T10:59:57;17.48;;;8.10;;
44366;SDS011;30086;57.660;12.000;2023-08-20T11:02:51;22.88;;;7.43;;
44366;SDS011;30086;57.660;12.000;2023-08-20T11:08:36;18.25;;;6.35;;
44366;SDS011;30086;57.660;12.000;2023-08-20T11:11:25;11.40;;;5.13;;
44366;SDS011;30086;57.660;12.000;2023-08-20T11:14:40;13.68;;;5.15;;
44366;SDS011;30086;57.660;12.000;2023-08-20T11:17:55;15.35;;;5.13;;
44366;SDS011;30086;57.660;12.000;2023-08-20T11:20:49;14.70;;;5.40;;
44366;SDS011;30086;57.660;12.000;2023-08-20T11:23:53;18.15;;;5.80;;
44366;SDS011;30086;57.660;12.000;2023-08-20T11:26:46;16.83;;;4.93;;
44366;SDS011;30086;57.660;12.000;2023-08-20T11:29:19;15.45;;;4.72;;
44366;SDS011;30086;57.660;12.000;2023-08-20T11:32:09;11.50;;;4.38;;
44366;SDS011;30086;57.660;12.000;2023-08-20T11:35:35;16.45;;;5.45;;
44366;SDS011;30086;57.660;12.000;2023-08-20T11:38:19;20.05;;;5.38;;
44366;SDS011;30086;57.660;12.000;2023-08-20T11:41:39;16.13;;;5.60;;
44366;SDS011;30086;57.660;12.000;2023-08-20T11:44:47;16.10;;;6.10;;
44366;SDS011;30086;57.660;12.000;2023-08-20T11:47:55;14.02;;;5.45;;
44366;SDS011;30086;57.660;12.000;2023-08-20T11:51:14;21.67;;;6.25;;
44366;SDS011;30086;57.660;12.000;2023-08-20T11:54:35;14.18;;;4.75;;
44366;SDS011;30086;57.660;12.000;2023-08-20T11:57:23;16.92;;;4.63;;
44366;SDS011;30086;57.660;12.000;2023-08-20T12:03:30;13.57;;;4.85;;
44366;SDS011;30086;57.660;12.000;2023-08-20T12:09:23;12.77;;;4.85;;
44366;SDS011;30086;57.660;12.000;2023-08-20T12:12:36;12.23;;;4.47;;
44366;SDS011;30086;57.660;12.000;2023-08-20T12:15:28;11.32;;;4.60;;
44366;SDS011;30086;57.660;12.000;2023-08-20T12:18:17;16.67;;;4.97;;
44366;SDS011;30086;57.660;12.000;2023-08-20T12:24:09;13.77;;;4.35;;
44366;SDS011;30086;57.660;12.000;2023-08-20T12:27:11;14.40;;;4.43;;
44366;SDS011;30086;57.660;12.000;2023-08-20T12:29:57;10.93;;;3.88;;
44366;SDS011;30086;57.660;12.000;2023-08-20T12:32:32;11.57;;;3.83;;
44366;SDS011;30086;57.660;12.000;2023-08-20T12:35:10;17.80;;;4.30;;
44366;SDS011;30086;57.660;12.000;2023-08-20T12:38:15;8.55;;;3.55;;
44366;SDS011;30086;57.660;12.000;2023-08-20T12:40:44;12.73;;;3.95;;
44366;SDS011;30086;57.660;12.000;2023-08-20T12:43:10;12.88;;;4.35;;
44366;SDS011;30086;57.660;12.000;2023-08-20T12:45:41;10.07;;;3.75;;
44366;SDS011;30086;57.660;12.000;2023-08-20T12:48:29;11.27;;;4.07;;
44366;SDS011;30086;57.660;12.000;2023-08-20T12:51:07;12.77;;;3.90;;
44366;SDS011;30086;57.660;12.000;2023-08-20T12:53:42;8.70;;;3.17;;
44366;SDS011;30086;57.660;12.000;2023-08-20T12:56:21;9.68;;;2.88;;
44366;SDS011;30086;57.660;12.000;2023-08-20T12:58:49;13.52;;;3.25;;
44366;SDS011;30086;57.660;12.000;2023-08-20T13:01:19;13.77;;;3.40;;
44366;SDS011;30086;57.660;12.000;2023-08-20T13:03:54;11.10;;;3.78;;
44366;SDS011;30086;57.660;12.000;2023-08-20T13:13:09;5.70;;;2.45;;
44366;SDS011;30086;57.660;12.000;2023-08-20T13:22:17;8.98;;;3.17;;
44366;SDS011;30086;57.660;12.000;2023-08-20T13:25:27;12.07;;;4.15;;
44366;SDS011;30086;57.660;12.000;2023-08-20T13:31:45;8.27;;;2.83;;
44366;SDS011;30086;57.660;12.000;2023-08-20T13:34:16;9.02;;;3.30;;
44366;SDS011;30086;57.660;12.000;2023-08-20T13:37:31;9.07;;;3.33;;
44366;SDS011;30086;57.660;12.000;2023-08-20T13:40:39;11.00;;;3.80;;
44366;SDS011;30086;57.660;12.000;2023-08-20T13:43:17;10.77;;;3.15;;
44366;SDS011;30086;57.660;12.000;2023-08-20T13:48:58;10.63;;;3.40;;
44366;SDS011;30086;57.660;12.000;2023-08-20T13:51:42;7.93;;;3.42;;
44366;SDS011;30086;57.660;12.000;2023-08-20T14:02:28;7.15;;;2.83;;
44366;SDS011;30086;57.660;12.000;2023-08-20T14:07:41;11.20;;;3.30;;
44366;SDS011;30086;57.660;12.000;2023-08-20T14:10:12;7.03;;;2.70;;
44366;SDS011;30086;57.660;12.000;2023-08-20T14:12:38;8.25;;;1.85;;
44366;SDS011;30086;57.660;12.000;2023-08-20T14:15:30;11.93;;;3.20;;
44366;SDS011;30086;57.660;12.000;2023-08-20T14:18:26;8.90;;;2.95;;
44366;SDS011;30086;57.660;12.000;2023-08-20T14:20:56;11.20;;;2.78;;
44366;SDS011;30086;57.660;12.000;2023-08-20T14:23:34;6.85;;;2.50;;
44366;SDS011;30086;57.660;12.000;2023-08-20T14:26:21;12.15;;;2.88;;
44366;SDS011;30086;57.660;12.000;2023-08-20T14:28:48;8.93;;;3.00;;
44366;SDS011;30086;57.660;12.000;2023-08-20T14:31:19;8.80;;;2.90;;
44366;SDS011;30086;57.660;12.000;2023-08-20T14:34:14;8.57;;;3.08;;
44366;SDS011;30086;57.660;12.000;2023-08-20T14:37:11;7.20;;;2.53;;
44366;SDS011;30086;57.660;12.000;2023-08-20T14:39:49;10.52;;;3.00;;
44366;SDS011;30086;57.660;12.000;2023-08-20T14:48:50;7.35;;;2.70;;
44366;SDS011;30086;57.660;12.000;2023-08-20T14:51:54;12.23;;;3.20;;
44366;SDS011;30086;57.660;12.000;2023-08-20T14:54:50;13.60;;;3.10;;
44366;SDS011;30086;57.660;12.000;2023-08-20T14:57:17;11.90;;;3.28;;
44366;SDS011;30086;57.660;12.000;2023-08-20T14:59:53;10.88;;;3.28;;
44366;SDS011;30086;57.660;12.000;2023-08-20T15:02:55;10.85;;;2.33;;
44366;SDS011;30086;57.660;12.000;2023-08-20T15:05:21;13.57;;;4.53;;
44366;SDS011;30086;57.660;12.000;2023-08-20T15:07:48;11.45;;;4.07;;
44366;SDS011;30086;57.660;12.000;2023-08-20T15:11:06;9.68;;;3.30;;
44366;SDS011;30086;57.660;12.000;2023-08-20T15:13:38;11.75;;;3.70;;
44366;SDS011;30086;57.660;12.000;2023-08-20T15:16:40;8.93;;;3.50;;
44366;SDS011;30086;57.660;12.000;2023-08-20T15:19:14;13.38;;;4.15;;
44366;SDS011;30086;57.660;12.000;2023-08-20T15:22:06;10.32;;;3.65;;
44366;SDS011;30086;57.660;12.000;2023-08-20T15:25:07;15.50;;;6.70;;
44366;SDS011;30086;57.660;12.000;2023-08-20T15:27:44;10.88;;;4.65;;
44366;SDS011;30086;57.660;12.000;2023-08-20T15:30:38;11.50;;;4.72;;
44366;SDS011;30086;57.660;12.000;2023-08-20T15:33:27;12.45;;;3.60;;
44366;SDS011;30086;57.660;12.000;2023-08-20T15:36:26;12.35;;;3.40;;
44366;SDS011;30086;57.660;12.000;2023-08-20T15:38:55;7.90;;;3.10;;
44366;SDS011;30086;57.660;12.000;2023-08-20T15:41:49;12.52;;;3.85;;
44366;SDS011;30086;57.660;12.000;2023-08-20T15:44:23;9.55;;;3.85;;
44366;SDS011;30086;57.660;12.000;2023-08-20T15:47:47;14.30;;;3.83;;
44366;SDS011;30086;57.660;12.000;2023-08-20T15:51:01;12.73;;;3.22;;
44366;SDS011;30086;57.660;12.000;2023-08-20T15:54:06;10.82;;;2.90;;
44366;SDS011;30086;57.660;12.000;2023-08-20T15:59:15;9.63;;;2.42;;
44366;SDS011;30086;57.660;12.000;2023-08-20T16:02:06;12.40;;;3.42;;
44366;SDS011;30086;57.660;12.000;2023-08-20T16:04:42;11.77;;;3.47;;
44366;SDS011;30086;57.660;12.000;2023-08-20T16:07:10;12.02;;;3.38;;
44366;SDS011;30086;57.660;12.000;2023-08-20T16:09:40;13.65;;;3.83;;
44366;SDS011;30086;57.660;12.000;2023-08-20T16:12:48;11.80;;;4.03;;
44366;SDS011;30086;57.660;12.000;2023-08-20T16:15:19;13.50;;;3.95;;
44366;SDS011;30086;57.660;12.000;2023-08-20T16:20:46;17.02;;;3.67;;
44366;SDS011;30086;57.660;12.000;2023-08-20T16:23:34;11.68;;;3.95;;
44366;SDS011;30086;57.660;12.000;2023-08-20T16:26:02;13.05;;;4.80;;
44366;SDS011;30086;57.660;12.000;2023-08-20T16:28:29;12.32;;;4.22;;
44366;SDS011;30086;57.660;12.000;2023-08-20T16:31:32;11.73;;;4.30;;
44366;SDS011;30086;57.660;12.000;2023-08-20T16:34:27;10.32;;;3.83;;
44366;SDS011;30086;57.660;12.000;2023-08-20T16:37:35;13.25;;;4.85;;
44366;SDS011;30086;57.660;12.000;2023-08-20T16:40:22;12.05;;;3.75;;
44366;SDS011;30086;57.660;12.000;2023-08-20T16:43:27;11.80;;;4.40;;
44366;SDS011;30086;57.660;12.000;2023-08-20T16:52:10;16.30;;;5.00;;
44366;SDS011;30086;57.660;12.000;2023-08-20T16:54:57;11.65;;;4.15;;
44366;SDS011;30086;57.660;12.000;2023-08-20T16:57:24;11.80;;;4.38;;
44366;SDS011;30086;57.660;12.000;2023-08-20T16:59:53;15.88;;;4.97;;
44366;SDS011;30086;57.660;12.000;2023-08-20T17:02:19;18.10;;;4.65;;
44366;SDS011;30086;57.660;12.000;2023-08-20T17:05:08;12.68;;;5.20;;
44366;SDS011;30086;57.660;12.000;2023-08-20T17:07:57;11.90;;;4.78;;
44366;SDS011;30086;57.660;12.000;2023-08-20T17:10:51;11.68;;;4.18;;
44366;SDS011;30086;57.660;12.000;2023-08-20T17:13:23;13.60;;;4.55;;
44366;SDS011;30086;57.660;12.000;2023-08-20T17:15:51;13.65;;;4.30;;
44366;SDS011;30086;57.660;12.000;2023-08-20T17:18:17;20.08;;;4.88;;
44366;SDS011;30086;57.660;12.000;2023-08-20T17:20:43;13.57;;;4.38;;
44366;SDS011;30086;57.660;12.000;2023-08-20T17:23:10;14.52;;;4.68;;
44366;SDS011;30086;57.660;12.000;2023-08-20T17:25:36;13.10;;;5.10;;
44366;SDS011;30086;57.660;12.000;2023-08-20T17:28:02;14.80;;;4.95;;
44366;SDS011;30086;57.660;12.000;2023-08-20T17:30:33;15.35;;;5.38;;
44366;SDS011;30086;57.660;12.000;2023-08-20T17:32:59;12.13;;;4.93;;
44366;SDS011;30086;57.660;12.000;2023-08-20T17:35:45;13.18;;;4.70;;
44366;SDS011;30086;57.660;12.000;2023-08-20T17:38:13;11.82;;;4.47;;
44366;SDS011;30086;57.660;12.000;2023-08-20T17:40:40;11.15;;;5.30;;
44366;SDS011;30086;57.660;12.000;2023-08-20T17:43:09;12.20;;;5.10;;
44366;SDS011;30086;57.660;12.000;2023-08-20T17:45:55;14.38;;;4.72;;
44366;SDS011;30086;57.660;12.000;2023-08-20T17:48:29;16.35;;;5.18;;
44366;SDS011;30086;57.660;12.000;2023-08-20T17:50:59;13.15;;;5.00;;
44366;SDS011;30086;57.660;12.000;2023-08-20T17:53:50;16.42;;;4.95;;
44366;SDS011;30086;57.660;12.000;2023-08-20T17:56:20;14.48;;;5.38;;
44366;SDS011;30086;57.660;12.000;2023-08-20T17:58:56;13.35;;;4.78;;
44366;SDS011;30086;57.660;12.000;2023-08-20T18:02:00;16.83;;;5.40;;
44366;SDS011;30086;57.660;12.000;2023-08-20T18:04:46;15.23;;;4.88;;
44366;SDS011;30086;57.660;12.000;2023-08-20T18:15:18;14.65;;;5.05;;
44366;SDS011;30086;57.660;12.000;2023-08-20T18:30:39;15.05;;;5.05;;
44366;SDS011;30086;57.660;12.000;2023-08-20T18:33:07;22.83;;;5.85;;
44366;SDS011;30086;57.660;12.000;2023-08-20T18:35:33;13.32;;;4.65;;
44366;SDS011;30086;57.660;12.000;2023-08-20T18:37:59;13.98;;;5.68;;
44366;SDS011;30086;57.660;12.000;2023-08-20T18:40:31;14.18;;;6.18;;
44366;SDS011;30086;57.660;12.000;2023-08-20T18:42:57;16.15;;;5.78;;
44366;SDS011;30086;57.660;12.000;2023-08-20T18:45:25;9.75;;;4.75;;
44366;SDS011;30086;57.660;12.000;2023-08-20T18:47:52;12.68;;;6.22;;
44366;SDS011;30086;57.660;12.000;2023-08-20T18:50:20;12.18;;;5.13;;
44366;SDS011;30086;57.660;12.000;2023-08-20T18:52:46;16.50;;;5.82;;
44366;SDS011;30086;57.660;12.000;2023-08-20T18:55:13;20.15;;;6.03;;
44366;SDS011;30086;57.660;12.000;2023-08-20T18:57:39;11.73;;;5.75;;
44366;SDS011;30086;57.660;12.000;2023-08-20T19:00:05;16.80;;;5.32;;
44366;SDS011;30086;57.660;12.000;2023-08-20T19:02:37;20.48;;;6.63;;
44366;SDS011;30086;57.660;12.000;2023-08-20T19:05:06;15.20;;;5.63;;
44366;SDS011;30086;57.660;12.000;2023-08-20T19:07:50;14.80;;;5.72;;
44366;SDS011;30086;57.660;12.000;2023-08-20T19:10:18;15.57;;;6.25;;
44366;SDS011;30086;57.660;12.000;2023-08-20T19:12:49;11.23;;;5.60;;
44366;SDS011;30086;57.660;12.000;2023-08-20T19:15:18;17.30;;;5.32;;
44366;SDS011;30086;57.660;12.000;2023-08-20T19:17:47;10.10;;;4.97;;